createdAt,value
2022-10-02T00:03:24.589Z,92.9
2022-10-02T00:13:24.361Z,92.8
2022-10-02T00:23:24.372Z,92.6
2022-10-02T00:33:24.442Z,92.4
2022-10-02T00:53:24.462Z,91.9
2022-10-02T01:03:24.440Z,91.7
2022-10-02T01:33:24.530Z,91.7
2022-10-02T01:53:24.588Z,91.9
2022-10-02T02:03:24.557Z,92.1
2022-10-02T02:13:24.589Z,92.1
2022-10-02T02:23:24.695Z,92.4
2022-10-02T02:33:24.641Z,92.5
2022-10-02T02:43:24.639Z,92.8
2022-10-02T03:03:24.694Z,93.2
2022-10-02T03:13:24.702Z,93.2
2022-10-02T03:23:24.735Z,93.3
2022-10-02T04:03:24.856Z,95.8
2022-10-02T04:13:24.810Z,96.1
2022-10-02T04:23:24.850Z,96.3
2022-10-02T04:33:24.848Z,96.5
2022-10-02T04:43:24.871Z,96.6
2022-10-02T04:53:24.877Z,96.8
2022-10-02T05:03:24.907Z,97
2022-10-02T05:33:24.977Z,97.2
2022-10-02T05:53:25.052Z,97.4
2022-10-02T06:03:24.987Z,97.5
2022-10-02T06:13:25.047Z,97.5
2022-10-02T06:23:25.035Z,97.7
2022-10-02T06:33:25.144Z,97.8
2022-10-02T06:43:25.094Z,97.7
2022-10-02T06:53:25.300Z,97.9
2022-10-02T07:03:25.112Z,97.9
2022-10-02T07:13:25.196Z,97.8
2022-10-02T07:23:25.169Z,97.9
2022-10-02T07:33:29.259Z,97.9
2022-10-02T07:43:25.174Z,97.9
2022-10-02T07:53:25.236Z,97.9
2022-10-02T08:03:25.333Z,98
2022-10-02T08:13:25.386Z,98
2022-10-02T08:23:25.262Z,98
2022-10-02T08:33:25.310Z,98
2022-10-02T08:43:25.335Z,97.7
2022-10-02T08:53:25.479Z,97.6
2022-10-02T09:03:25.350Z,97.6
2022-10-02T09:13:25.586Z,97.4
2022-10-02T09:23:25.468Z,97.4
2022-10-02T09:33:25.438Z,97.2
2022-10-02T09:43:25.414Z,96.5
2022-10-02T09:53:25.435Z,96.4
2022-10-02T10:03:25.442Z,95.7
2022-10-02T10:13:25.481Z,95.9
2022-10-02T10:23:25.473Z,95.9
2022-10-02T10:33:25.565Z,95.6
2022-10-02T10:43:25.521Z,95.7
2022-10-02T11:03:25.564Z,94.9
2022-10-02T11:13:25.636Z,94.2
2022-10-02T11:23:25.609Z,93.6
2022-10-02T11:33:25.602Z,91.3
2022-10-02T11:43:25.656Z,89.9
2022-10-02T11:53:25.640Z,89.3
2022-10-02T12:03:25.724Z,89.3
2022-10-02T12:13:25.660Z,89.1
2022-10-02T12:23:25.705Z,88.9
2022-10-02T12:33:25.707Z,87.5
2022-10-02T12:43:25.753Z,86.7
2022-10-02T12:53:25.751Z,85.2
2022-10-02T13:03:25.776Z,82.5
2022-10-02T13:13:25.794Z,82.8
2022-10-02T13:23:25.824Z,82.9
2022-10-02T13:33:25.795Z,82.6
2022-10-02T13:43:25.847Z,83.2
2022-10-02T13:53:25.829Z,83.7
2022-10-02T14:03:25.968Z,84.1
2022-10-02T14:13:25.860Z,85.3
2022-10-02T14:23:25.925Z,85.2
2022-10-02T14:33:25.928Z,85.7
2022-10-02T14:43:25.939Z,85.3
2022-10-02T14:53:25.970Z,84.8
2022-10-02T15:03:25.985Z,85.4
2022-10-02T15:13:25.997Z,85.5
2022-10-02T15:23:26.029Z,85.4
2022-10-02T15:33:26.017Z,85.7
2022-10-02T15:43:26.041Z,86.1
2022-10-02T15:53:26.049Z,86.5
2022-10-02T16:03:26.094Z,87.5
2022-10-02T16:43:26.170Z,90.9
2022-10-02T16:53:26.143Z,91
2022-10-02T17:13:26.238Z,91.8
2022-10-02T17:43:26.272Z,92.6
2022-10-02T17:53:26.279Z,92.7
2022-10-02T18:13:26.314Z,92.6
2022-10-02T18:23:26.305Z,92.6
2022-10-02T18:33:26.361Z,92.7
2022-10-02T18:43:26.341Z,93.2
2022-10-02T18:53:26.399Z,93.8
2022-10-02T19:03:26.387Z,94.6
2022-10-02T19:13:26.417Z,95
2022-10-02T19:23:26.416Z,95.2
2022-10-02T19:33:26.469Z,95.5
2022-10-02T20:13:26.563Z,96.7
2022-10-02T21:03:26.650Z,97.5
2022-10-02T21:13:26.644Z,97.4
2022-10-02T21:23:26.681Z,97.3
2022-10-02T21:43:26.817Z,96.8
2022-10-02T22:13:26.793Z,96.9
2022-10-02T22:23:26.785Z,97.1
2022-10-02T22:43:26.835Z,97.6
2022-10-02T22:53:26.848Z,97.7
2022-10-02T23:13:26.930Z,97.9
2022-10-02T23:33:26.975Z,98
2022-10-02T23:43:26.934Z,98.1
